createdAt,value
2018-08-12T00:01:53.011Z,101762.05
2018-08-12T00:04:21.416Z,101762.92
2018-08-12T00:06:49.819Z,101761.17
2018-08-12T00:09:18.235Z,101755.05
2018-08-12T00:11:46.658Z,101752.40
2018-08-12T00:14:15.059Z,101752.41
2018-08-12T00:16:43.425Z,101755.85
2018-08-12T00:19:11.979Z,101756.29
2018-08-12T00:21:40.370Z,101754.95
2018-08-12T00:24:08.799Z,101749.29
2018-08-12T00:26:37.180Z,101752.34
2018-08-12T00:29:05.910Z,101755.80
2018-08-12T00:31:34.354Z,101760.62
2018-08-12T00:34:02.759Z,101762.33
2018-08-12T00:36:31.139Z,101758.84
2018-08-12T00:38:59.563Z,101759.25
2018-08-12T00:41:28.063Z,101756.20
2018-08-12T00:43:56.448Z,101749.23
2018-08-12T00:46:24.827Z,101748.80
2018-08-12T00:48:53.227Z,101753.16
2018-08-12T00:51:21.621Z,101748.77
2018-08-12T00:53:50.018Z,101749.64
2018-08-12T00:56:18.399Z,101744.84
2018-08-12T00:58:46.803Z,101742.67
2018-08-12T01:01:15.182Z,101740.92
2018-08-12T01:03:43.570Z,101746.99
2018-08-12T01:06:11.934Z,101740.86
2018-08-12T01:08:40.338Z,101743.48
2018-08-12T01:11:08.714Z,101747.40
2018-08-12T01:13:37.138Z,101746.93
2018-08-12T01:16:06.038Z,101747.37
2018-08-12T01:18:34.455Z,101754.77
2018-08-12T01:21:02.827Z,101746.90
2018-08-12T01:23:31.239Z,101749.08
2018-08-12T01:25:59.659Z,101747.73
2018-08-12T01:28:28.164Z,101746.44
2018-08-12T01:30:56.539Z,101749.45
2018-08-12T01:33:24.947Z,101748.14
2018-08-12T01:35:53.368Z,101740.70
2018-08-12T01:38:21.759Z,101751.16
2018-08-12T01:40:50.138Z,101744.59
2018-08-12T01:43:18.543Z,101745.87
2018-08-12T01:45:46.918Z,101741.92
2018-08-12T01:48:15.307Z,101743.62
2018-08-12T01:50:43.680Z,101747.95
2018-08-12T01:53:12.106Z,101748.81
2018-08-12T01:55:40.490Z,101750.52
2018-08-12T01:58:09.499Z,101736.99
2018-08-12T02:00:37.870Z,101740.48
2018-08-12T02:03:06.306Z,101747.41
2018-08-12T02:05:34.674Z,101744.36
2018-08-12T02:08:03.074Z,101747.84
2018-08-12T02:10:31.441Z,101746.94
2018-08-12T02:12:59.848Z,101739.07
2018-08-12T02:15:28.241Z,101739.54
2018-08-12T02:17:56.614Z,101745.20
2018-08-12T02:20:25.019Z,101748.25
2018-08-12T02:22:53.390Z,101744.33
2018-08-12T02:25:21.790Z,101744.73
2018-08-12T02:27:50.158Z,101735.16
2018-08-12T02:30:18.559Z,101734.72
2018-08-12T02:32:46.945Z,101729.89
2018-08-12T02:35:15.343Z,101728.59
2018-08-12T02:37:43.719Z,101732.51
2018-08-12T02:40:12.222Z,101727.72
2018-08-12T02:42:40.615Z,101726.84
2018-08-12T02:45:11.283Z,101729.02
2018-08-12T02:47:39.659Z,101731.16
2018-08-12T02:50:08.055Z,101736.39
2018-08-12T02:52:36.959Z,101731.16
2018-08-12T02:55:06.281Z,101728.95
2018-08-12T02:57:34.655Z,101729.83
2018-08-12T03:00:03.244Z,101734.61
2018-08-12T03:02:31.646Z,101731.97
2018-08-12T03:05:00.053Z,101731.09
2018-08-12T03:07:28.430Z,101731.53
2018-08-12T03:09:56.830Z,101731.93
2018-08-12T03:12:25.222Z,101736.28
2018-08-12T03:14:53.633Z,101737.16
2018-08-12T03:17:22.009Z,101738.02
2018-08-12T03:19:50.405Z,101734.98
2018-08-12T03:22:18.841Z,101728.02
2018-08-12T03:24:47.203Z,101735.84
2018-08-12T03:27:15.604Z,101734.55
2018-08-12T03:29:44.018Z,101741.07
2018-08-12T03:32:12.390Z,101739.77
2018-08-12T03:34:40.794Z,101735.02
2018-08-12T03:37:09.160Z,101731.97
2018-08-12T03:39:37.554Z,101726.78
2018-08-12T03:42:05.952Z,101728.48
2018-08-12T03:44:34.346Z,101727.61
2018-08-12T03:47:02.717Z,101729.36
2018-08-12T03:49:31.111Z,101728.52
2018-08-12T03:51:59.488Z,101719.41
2018-08-12T03:54:27.882Z,101720.75
2018-08-12T03:56:56.254Z,101725.14
2018-08-12T03:59:24.647Z,101723.47
2018-08-12T04:01:53.010Z,101723.97
2018-08-12T04:04:21.406Z,101724.44
2018-08-12T04:06:49.783Z,101727.98
2018-08-12T04:09:18.175Z,101733.24
2018-08-12T04:11:46.554Z,101742.95
2018-08-12T04:14:14.975Z,101743.08
2018-08-12T04:16:47.699Z,101734.02
2018-08-12T04:19:16.118Z,101738.46
2018-08-12T04:21:44.510Z,101742.84
2018-08-12T04:24:12.895Z,101736.74
2018-08-12T04:26:41.293Z,101744.18
2018-08-12T04:29:09.667Z,101741.54
2018-08-12T04:31:38.094Z,101741.07
2018-08-12T04:34:06.471Z,101748.05
2018-08-12T04:36:34.906Z,101742.35
2018-08-12T04:39:03.374Z,101751.87
2018-08-12T04:41:31.770Z,101749.23
2018-08-12T04:44:00.142Z,101753.59
2018-08-12T04:46:28.534Z,101748.77
2018-08-12T04:48:56.918Z,101749.64
2018-08-12T04:51:25.302Z,101755.77
2018-08-12T04:53:53.670Z,101751.41
2018-08-12T04:56:22.069Z,101754.95
2018-08-12T04:58:50.437Z,101750.69
2018-08-12T05:01:18.872Z,101747.70
2018-08-12T05:03:47.507Z,101748.63
2018-08-12T05:06:15.893Z,101751.32
2018-08-12T05:08:44.266Z,101757.50
2018-08-12T05:11:12.694Z,101756.27
2018-08-12T05:13:41.093Z,101759.41
2018-08-12T05:16:09.501Z,101759.08
2018-08-12T05:18:37.882Z,101748.66
2018-08-12T05:21:06.298Z,101757.39
2018-08-12T05:23:34.691Z,101754.39
2018-08-12T05:26:03.109Z,101748.30
2018-08-12T05:28:31.482Z,101752.28
2018-08-12T05:30:59.874Z,101760.58
2018-08-12T05:33:28.250Z,101754.09
2018-08-12T05:35:56.655Z,101748.02
2018-08-12T05:38:25.029Z,101755.05
2018-08-12T05:40:55.182Z,101752.00
2018-08-12T05:43:23.557Z,101755.13
2018-08-12T05:45:51.941Z,101755.18
2018-08-12T05:48:20.323Z,101750.83
2018-08-12T05:50:48.726Z,101748.67
2018-08-12T05:53:17.107Z,101745.66
2018-08-12T05:55:45.505Z,101747.89
2018-08-12T05:58:13.882Z,101740.96
2018-08-12T06:00:42.283Z,101744.06
2018-08-12T06:03:10.649Z,101737.55
2018-08-12T06:05:39.042Z,101742.89
2018-08-12T06:08:07.423Z,101738.55
2018-08-12T06:10:35.823Z,101740.36
2018-08-12T06:13:04.219Z,101741.28
2018-08-12T06:15:32.700Z,101734.31
2018-08-12T06:18:01.029Z,101731.28
2018-08-12T06:20:29.454Z,101730.00
2018-08-12T06:22:57.848Z,101730.02
2018-08-12T06:25:26.222Z,101727.39
2018-08-12T06:27:54.609Z,101727.86
2018-08-12T06:30:22.985Z,101722.19
2018-08-12T06:32:51.375Z,101716.94
2018-08-12T06:35:19.746Z,101720.89
2018-08-12T06:37:48.153Z,101720.00
2018-08-12T06:40:16.526Z,101721.33
2018-08-12T06:42:45.970Z,101721.29
2018-08-12T06:45:16.106Z,101716.90
2018-08-12T06:47:45.694Z,101718.63
2018-08-12T06:50:14.071Z,101715.98
2018-08-12T06:52:42.710Z,101718.58
2018-08-12T06:55:12.339Z,101714.20
2018-08-12T06:57:41.264Z,101718.09
2018-08-12T07:00:12.410Z,101717.19
2018-08-12T07:02:40.831Z,101718.44
2018-08-12T07:05:10.068Z,101718.82
2018-08-12T07:07:38.567Z,101716.56
2018-08-12T07:10:09.074Z,101718.70
2018-08-12T07:12:37.467Z,101713.81
2018-08-12T07:15:07.948Z,101711.16
2018-08-12T07:17:36.356Z,101709.78
2018-08-12T07:20:06.231Z,101717.20
2018-08-12T07:22:34.642Z,101716.69
2018-08-12T07:25:03.029Z,101710.91
2018-08-12T07:27:31.435Z,101713.02
2018-08-12T07:29:59.817Z,101707.27
2018-08-12T07:32:28.234Z,101715.09
2018-08-12T07:34:56.608Z,101708.85
2018-08-12T07:37:25.006Z,101718.86
2018-08-12T07:39:53.373Z,101720.92
2018-08-12T07:42:21.769Z,101713.83
2018-08-12T07:44:50.153Z,101710.69
2018-08-12T07:47:18.546Z,101714.14
2018-08-12T07:49:46.922Z,101710.59
2018-08-12T07:52:15.322Z,101712.69
2018-08-12T07:54:43.731Z,101708.77
2018-08-12T07:57:12.125Z,101709.23
2018-08-12T07:59:40.498Z,101706.59
2018-08-12T08:02:08.885Z,101707.91
2018-08-12T08:04:37.259Z,101696.86
2018-08-12T08:07:05.950Z,101701.22
2018-08-12T08:09:34.328Z,101695.03
2018-08-12T08:12:02.734Z,101682.66
2018-08-12T08:14:31.116Z,101690.02
2018-08-12T08:16:59.507Z,101681.13
2018-08-12T08:19:27.885Z,101686.75
2018-08-12T08:21:56.295Z,101687.55
2018-08-12T08:24:24.668Z,101674.24
2018-08-12T08:26:53.249Z,101671.02
2018-08-12T08:29:21.621Z,101675.23
2018-08-12T08:31:50.235Z,101676.77
2018-08-12T08:34:18.454Z,101677.50
2018-08-12T08:36:46.813Z,101680.06
2018-08-12T08:39:15.350Z,101679.95
2018-08-12T08:41:43.914Z,101683.09
2018-08-12T08:44:12.314Z,101684.43
2018-08-12T08:46:40.704Z,101672.48
2018-08-12T08:49:09.113Z,101668.86
2018-08-12T08:51:37.485Z,101668.33
2018-08-12T08:54:06.070Z,101677.87
2018-08-12T08:56:34.443Z,101664.13
2018-08-12T08:59:03.038Z,101665.78
2018-08-12T09:01:31.454Z,101661.33
2018-08-12T09:03:59.823Z,101662.00
2018-08-12T09:06:28.200Z,101666.12
2018-08-12T09:08:56.800Z,101662.31
2018-08-12T09:11:25.007Z,101657.61
2018-08-12T09:13:53.429Z,101655.59
2018-08-12T09:16:21.825Z,101662.11
2018-08-12T09:18:50.236Z,101658.85
2018-08-12T09:21:18.628Z,101657.37
2018-08-12T09:23:47.045Z,101655.47
2018-08-12T09:26:15.440Z,101650.45
2018-08-12T09:28:43.890Z,101656.26
2018-08-12T09:31:12.307Z,101658.78
2018-08-12T09:33:40.717Z,101657.45
2018-08-12T09:36:09.123Z,101653.51
2018-08-12T09:38:37.517Z,101655.27
2018-08-12T09:41:06.065Z,101653.61
2018-08-12T09:43:34.475Z,101655.77
2018-08-12T09:46:02.857Z,101651.02
2018-08-12T09:48:31.603Z,101643.08
2018-08-12T09:50:59.974Z,101641.70
2018-08-12T09:53:28.397Z,101642.14
2018-08-12T09:55:56.772Z,101639.52
2018-08-12T09:58:25.210Z,101639.19
2018-08-12T10:00:53.569Z,101631.83
2018-08-12T10:03:21.966Z,101627.78
2018-08-12T10:05:50.380Z,101624.05
2018-08-12T10:08:18.782Z,101628.96
2018-08-12T10:10:47.172Z,101611.28
2018-08-12T10:13:15.637Z,101603.72
2018-08-12T10:15:44.071Z,101605.74
2018-08-12T10:18:12.482Z,101597.70
2018-08-12T10:20:40.906Z,101589.03
2018-08-12T10:23:09.330Z,101594.03
2018-08-12T10:25:37.727Z,101589.86
2018-08-12T10:28:06.111Z,101584.10
2018-08-12T10:30:34.513Z,101589.72
2018-08-12T10:33:02.900Z,101585.18
2018-08-12T10:35:31.302Z,101588.52
2018-08-12T10:37:59.698Z,101587.52
2018-08-12T10:40:28.105Z,101575.36
2018-08-12T10:42:56.478Z,101582.12
2018-08-12T10:45:24.905Z,101575.89
2018-08-12T10:47:53.300Z,101576.36
2018-08-12T10:50:21.698Z,101577.09
2018-08-12T10:52:50.462Z,101568.49
2018-08-12T10:55:21.451Z,101569.54
2018-08-12T10:57:50.013Z,101558.87
2018-08-12T11:00:21.779Z,101554.78
2018-08-12T11:02:50.189Z,101556.45
2018-08-12T11:05:18.843Z,101554.91
2018-08-12T11:07:49.871Z,101551.18
2018-08-12T11:10:18.277Z,101560.70
2018-08-12T11:12:46.759Z,101554.80
2018-08-12T11:15:15.192Z,101557.30
2018-08-12T11:17:43.578Z,101557.97
2018-08-12T11:20:11.997Z,101547.53
2018-08-12T11:22:40.397Z,101542.09
2018-08-12T11:25:10.280Z,101541.25
2018-08-12T11:27:38.675Z,101541.77
2018-08-12T11:30:09.137Z,101536.19
2018-08-12T11:32:37.562Z,101535.11
2018-08-12T11:35:07.208Z,101537.52
2018-08-12T11:37:35.590Z,101531.88
2018-08-12T11:40:04.687Z,101520.94
2018-08-12T11:42:33.082Z,101529.14
2018-08-12T11:45:01.494Z,101528.21
2018-08-12T11:47:29.891Z,101521.19
2018-08-12T11:49:58.299Z,101515.02
2018-08-12T11:52:26.678Z,101517.27
2018-08-12T11:54:55.080Z,101518.48
2018-08-12T11:57:23.463Z,101518.27
2018-08-12T11:59:51.887Z,101510.96
2018-08-12T12:02:20.271Z,101501.20
2018-08-12T12:04:48.682Z,101500.45
2018-08-12T12:07:17.103Z,101497.33
2018-08-12T12:09:45.497Z,101502.06
2018-08-12T12:12:13.923Z,101499.25
2018-08-12T12:14:42.358Z,101490.66
2018-08-12T12:17:10.789Z,101491.48
2018-08-12T12:19:39.235Z,101483.04
2018-08-12T12:22:07.634Z,101489.05
2018-08-12T12:24:36.087Z,101495.58
2018-08-12T12:27:04.482Z,101489.20
2018-08-12T12:29:32.867Z,101486.77
2018-08-12T12:32:01.535Z,101477.75
2018-08-12T12:34:29.939Z,101478.09
2018-08-12T12:36:58.383Z,101475.91
2018-08-12T12:39:26.767Z,101470.72
2018-08-12T12:41:55.187Z,101468.02
2018-08-12T12:44:23.663Z,101458.12
2018-08-12T12:46:52.057Z,101462.24
2018-08-12T12:49:20.437Z,101462.89
2018-08-12T12:51:48.891Z,101462.89
2018-08-12T12:54:17.270Z,101446.47
2018-08-12T12:56:46.040Z,101446.03
2018-08-12T12:59:14.443Z,101446.89
2018-08-12T13:01:42.841Z,101436.31
2018-08-12T13:04:11.231Z,101438.95
2018-08-12T13:06:39.637Z,101435.66
2018-08-12T13:09:10.722Z,101440.45
2018-08-12T13:11:39.118Z,101428.58
2018-08-12T13:14:07.837Z,101417.44
2018-08-12T13:16:36.560Z,101419.54
2018-08-12T13:19:05.319Z,101425.42
2018-08-12T13:21:33.717Z,101414.66
2018-08-12T13:24:02.147Z,101411.74
2018-08-12T13:26:30.579Z,101407.92
2018-08-12T13:28:58.991Z,101401.05
2018-08-12T13:31:27.382Z,101398.95
2018-08-12T13:33:55.852Z,101404.81
2018-08-12T13:36:24.279Z,101405.70
2018-08-12T13:38:52.647Z,101396.08
2018-08-12T13:41:21.087Z,101391.98
2018-08-12T13:43:49.466Z,101391.52
2018-08-12T13:46:17.868Z,101386.77
2018-08-12T13:48:46.239Z,101398.22
2018-08-12T13:51:14.646Z,101394.23
2018-08-12T13:53:43.034Z,101390.66
2018-08-12T13:56:11.430Z,101385.39
2018-08-12T13:58:39.819Z,101374.27
2018-08-12T14:01:08.232Z,101372.94
2018-08-12T14:03:36.624Z,101370.43
2018-08-12T14:06:05.018Z,101368.89
2018-08-12T14:08:33.391Z,101365.91
2018-08-12T14:11:01.784Z,101363.83
2018-08-12T14:13:30.203Z,101358.78
2018-08-12T14:15:58.623Z,101364.97
2018-08-12T14:18:27.008Z,101360.11
2018-08-12T14:20:55.475Z,101351.66
2018-08-12T14:23:23.835Z,101356.84
2018-08-12T14:25:52.219Z,101346.41
2018-08-12T14:28:20.637Z,101350.41
2018-08-12T14:30:49.006Z,101344.94
2018-08-12T14:33:17.406Z,101338.09
2018-08-12T14:35:45.773Z,101331.16
2018-08-12T14:38:14.167Z,101323.38
2018-08-12T14:40:42.533Z,101319.38
2018-08-12T14:43:10.931Z,101315.66
2018-08-12T14:45:39.311Z,101312.86
2018-08-12T14:48:07.747Z,101311.86
2018-08-12T14:50:36.126Z,101307.25
2018-08-12T14:53:04.546Z,101300.73
2018-08-12T14:55:32.928Z,101307.92
2018-08-12T14:58:01.330Z,101300.02
2018-08-12T15:00:29.721Z,101305.59
2018-08-12T15:02:58.113Z,101298.80
2018-08-12T15:05:26.499Z,101302.47
2018-08-12T15:07:54.905Z,101288.39
2018-08-12T15:10:23.298Z,101287.97
2018-08-12T15:12:51.709Z,101283.98
2018-08-12T15:15:20.194Z,101284.06
2018-08-12T15:17:48.526Z,101279.12
2018-08-12T15:20:17.522Z,101276.08
2018-08-12T15:22:45.959Z,101276.33
2018-08-12T15:25:17.253Z,101267.76
2018-08-12T15:27:45.766Z,101261.34
2018-08-12T15:30:14.141Z,101256.16
2018-08-12T15:32:42.538Z,101256.97
2018-08-12T15:35:11.087Z,101255.44
2018-08-12T15:37:39.481Z,101245.77
2018-08-12T15:40:10.173Z,101249.89
2018-08-12T15:42:38.701Z,101248.89
2018-08-12T15:45:09.219Z,101248.80
2018-08-12T15:47:37.639Z,101249.80
2018-08-12T15:50:06.783Z,101249.56
2018-08-12T15:52:35.174Z,101243.17
2018-08-12T15:55:03.566Z,101242.78
2018-08-12T15:57:31.962Z,101242.37
2018-08-12T16:00:00.325Z,101243.79
2018-08-12T16:02:28.731Z,101237.66
2018-08-12T16:04:57.105Z,101238.99
2018-08-12T16:07:25.515Z,101239.94
2018-08-12T16:09:53.894Z,101235.14
2018-08-12T16:12:22.289Z,101236.06
2018-08-12T16:14:50.689Z,101242.72
2018-08-12T16:17:19.091Z,101237.66
2018-08-12T16:19:47.475Z,101233.20
2018-08-12T16:22:15.941Z,101231.39
2018-08-12T16:24:44.312Z,101228.82
2018-08-12T16:27:12.716Z,101225.50
2018-08-12T16:29:41.146Z,101222.23
2018-08-12T16:32:09.531Z,101216.31
2018-08-12T16:34:37.926Z,101213.27
2018-08-12T16:37:06.423Z,101206.14
2018-08-12T16:39:34.821Z,101197.16
2018-08-12T16:42:03.205Z,101197.91
2018-08-12T16:44:31.606Z,101194.15
2018-08-12T16:46:59.991Z,101198.23
2018-08-12T16:49:28.518Z,101196.57
2018-08-12T16:51:56.806Z,101188.31
2018-08-12T16:54:25.197Z,101184.00
2018-08-12T16:56:53.619Z,101186.44
2018-08-12T16:59:21.997Z,101185.78
2018-08-12T17:01:50.383Z,101183.32
2018-08-12T17:04:18.873Z,101183.13
2018-08-12T17:06:47.276Z,101185.13
2018-08-12T17:09:15.697Z,101176.49
2018-08-12T17:11:44.061Z,101174.47
2018-08-12T17:14:12.486Z,101169.05
2018-08-12T17:16:40.849Z,101175.80
2018-08-12T17:19:09.247Z,101169.77
2018-08-12T17:21:37.629Z,101175.27
2018-08-12T17:24:06.031Z,101168.30
2018-08-12T17:26:34.414Z,101169.29
2018-08-12T17:29:02.840Z,101165.02
2018-08-12T17:31:31.226Z,101160.70
2018-08-12T17:33:59.621Z,101159.09
2018-08-12T17:36:28.003Z,101155.23
2018-08-12T17:38:56.410Z,101156.75
2018-08-12T17:41:24.783Z,101157.27
2018-08-12T17:43:53.191Z,101159.13
2018-08-12T17:46:21.608Z,101158.80
2018-08-12T17:48:50.017Z,101153.66
2018-08-12T17:51:18.398Z,101155.18
2018-08-12T17:53:46.802Z,101153.08
2018-08-12T17:56:15.198Z,101158.44
2018-08-12T17:58:43.710Z,101154.50
2018-08-12T18:01:12.133Z,101153.78
2018-08-12T18:03:40.524Z,101150.31
2018-08-12T18:06:08.898Z,101149.93
2018-08-12T18:08:37.315Z,101146.46
2018-08-12T18:11:05.701Z,101147.45
2018-08-12T18:13:34.130Z,101143.52
2018-08-12T18:16:02.518Z,101144.98
2018-08-12T18:18:30.921Z,101145.03
2018-08-12T18:20:59.444Z,101143.91
2018-08-12T18:23:27.912Z,101137.92
2018-08-12T18:25:56.294Z,101142.95
2018-08-12T18:28:24.839Z,101140.08
2018-08-12T18:30:53.218Z,101142.02
2018-08-12T18:33:21.611Z,101145.24
2018-08-12T18:35:50.043Z,101140.11
2018-08-12T18:38:18.491Z,101138.56
2018-08-12T18:40:46.890Z,101136.95
2018-08-12T18:43:15.305Z,101138.01
2018-08-12T18:45:43.714Z,101133.81
2018-08-12T18:48:12.113Z,101136.21
2018-08-12T18:50:40.524Z,101135.09
2018-08-12T18:53:08.911Z,101136.59
2018-08-12T18:55:37.338Z,101138.59
2018-08-12T18:58:05.740Z,101137.05
2018-08-12T19:00:34.140Z,101139.47
2018-08-12T19:03:02.518Z,101134.80
2018-08-12T19:05:30.924Z,101132.79
2018-08-12T19:07:59.313Z,101132.60
2018-08-12T19:10:27.719Z,101129.88
2018-08-12T19:12:56.837Z,101128.52
2018-08-12T19:15:25.257Z,101125.95
2018-08-12T19:17:53.657Z,101125.47
2018-08-12T19:20:22.067Z,101120.48
2018-08-12T19:22:50.445Z,101114.55
2018-08-12T19:25:18.847Z,101111.23
2018-08-12T19:27:47.221Z,101103.97
2018-08-12T19:30:15.614Z,101109.88
2018-08-12T19:32:44.009Z,101099.47
2018-08-12T19:35:12.990Z,101100.55
2018-08-12T19:37:41.653Z,101101.19
2018-08-12T19:40:10.467Z,101107.56
2018-08-12T19:42:39.234Z,101109.45
2018-08-12T19:45:08.759Z,101110.09
2018-08-12T19:47:37.170Z,101105.41
2018-08-12T19:50:06.187Z,101099.03
2018-08-12T19:52:34.603Z,101101.89
2018-08-12T19:55:03.016Z,101104.67
2018-08-12T19:57:31.399Z,101101.77
2018-08-12T19:59:59.847Z,101101.03
2018-08-12T20:02:28.339Z,101095.05
2018-08-12T20:04:56.758Z,101101.33
2018-08-12T20:07:25.137Z,101099.28
2018-08-12T20:09:53.543Z,101097.70
2018-08-12T20:12:21.926Z,101098.28
2018-08-12T20:14:50.366Z,101093.19
2018-08-12T20:17:18.758Z,101092.00
2018-08-12T20:19:47.153Z,101099.13
2018-08-12T20:22:16.581Z,101099.26
2018-08-12T20:24:45.480Z,101090.20
2018-08-12T20:27:14.206Z,101089.06
2018-08-12T20:29:43.073Z,101092.62
2018-08-12T20:32:11.451Z,101088.35
2018-08-12T20:34:40.010Z,101083.19
2018-08-12T20:37:08.466Z,101084.66
2018-08-12T20:39:36.915Z,101085.67
2018-08-12T20:42:05.279Z,101087.55
2018-08-12T20:44:33.657Z,101085.52
2018-08-12T20:47:02.046Z,101083.94
2018-08-12T20:49:30.418Z,101081.06
2018-08-12T20:51:58.812Z,101087.30
2018-08-12T20:54:27.222Z,101079.92
2018-08-12T20:56:55.619Z,101079.98
2018-08-12T20:59:24.059Z,101080.00
2018-08-12T21:01:52.414Z,101077.82
2018-08-12T21:04:20.790Z,101073.48
2018-08-12T21:06:49.191Z,101078.00
2018-08-12T21:09:17.582Z,101079.83
2018-08-12T21:11:46.061Z,101087.00
2018-08-12T21:14:14.409Z,101084.47
2018-08-12T21:16:42.813Z,101082.39
2018-08-12T21:19:11.215Z,101088.69
2018-08-12T21:21:39.618Z,101086.19
2018-08-12T21:24:07.995Z,101084.11
2018-08-12T21:26:36.399Z,101087.28
2018-08-12T21:29:04.786Z,101086.12
2018-08-12T21:31:33.177Z,101086.68
2018-08-12T21:34:01.551Z,101084.68
2018-08-12T21:36:29.945Z,101083.02
2018-08-12T21:38:58.333Z,101087.59
2018-08-12T21:41:26.742Z,101086.83
2018-08-12T21:43:55.118Z,101086.54
2018-08-12T21:46:23.510Z,101087.95
2018-08-12T21:48:51.887Z,101082.83
2018-08-12T21:51:20.279Z,101077.21
2018-08-12T21:53:48.655Z,101072.44
2018-08-12T21:56:17.046Z,101074.30
2018-08-12T21:58:45.419Z,101072.62
2018-08-12T22:01:13.873Z,101067.95
2018-08-12T22:03:42.254Z,101064.95
2018-08-12T22:06:10.650Z,101063.26
2018-08-12T22:08:39.107Z,101063.78
2018-08-12T22:11:07.498Z,101065.55
2018-08-12T22:13:35.911Z,101064.71
2018-08-12T22:16:04.317Z,101070.84
2018-08-12T22:18:32.867Z,101073.48
2018-08-12T22:21:01.265Z,101069.55
2018-08-12T22:23:29.647Z,101061.25
2018-08-12T22:25:58.051Z,101057.35
2018-08-12T22:28:26.425Z,101055.21
2018-08-12T22:30:54.826Z,101049.60
2018-08-12T22:33:23.202Z,101052.34
2018-08-12T22:35:51.583Z,101053.33
2018-08-12T22:38:19.991Z,101050.83
2018-08-12T22:40:48.383Z,101054.88
2018-08-12T22:43:16.779Z,101048.42
2018-08-12T22:45:45.162Z,101047.17
2018-08-12T22:48:13.558Z,101042.91
2018-08-12T22:50:41.946Z,101042.91
2018-08-12T22:53:10.374Z,101041.25
2018-08-12T22:55:38.758Z,101042.62
2018-08-12T22:58:07.157Z,101034.34
2018-08-12T23:00:35.566Z,101032.64
2018-08-12T23:03:03.988Z,101022.57
2018-08-12T23:05:32.378Z,101024.83
2018-08-12T23:08:06.915Z,101031.00
2018-08-12T23:10:35.514Z,101020.94
2018-08-12T23:13:03.930Z,101016.99
2018-08-12T23:16:45.971Z,101017.85
2018-08-12T23:19:14.375Z,101012.66
2018-08-12T23:21:42.778Z,101007.45
2018-08-12T23:24:11.153Z,101006.15
2018-08-12T23:26:39.558Z,101005.34
2018-08-12T23:29:07.938Z,101001.83
2018-08-12T23:31:36.343Z,100994.84
2018-08-12T23:34:04.714Z,100997.88
2018-08-12T23:36:33.126Z,100988.72
2018-08-12T23:39:01.548Z,100991.41
2018-08-12T23:41:29.933Z,100998.02
2018-08-12T23:43:58.334Z,100998.54
2018-08-12T23:46:26.714Z,100989.41
2018-08-12T23:48:55.119Z,100989.05
2018-08-12T23:51:23.512Z,100983.81
2018-08-12T23:53:51.911Z,100986.03
2018-08-12T23:56:20.293Z,100981.64
2018-08-12T23:58:48.701Z,100985.17
